<?xml version="1.0" encoding="UTF-8" standalone="no" ?>
<gpx xmlns="http://www.topografix.com/GPX/1/1" xmlns:xsi="http://www.w3.org/2001/XMLSchema-instance" xsi:schemaLocation="http://www.topografix.com/GPX/1/1 http://www.topografix.com/GPX/1/1/gpx.xsd" version="1.1" creator="VisuGPX - https://www.visugpx.com">
  <metadata>
    <name>Breitenbike 2</name>
  </metadata>
  <trk>
    <name><![CDATA[5965352-Breitenbike 2]]></name>
    <trkseg>
      <trkpt lat="48.02458" lon="7.1003">
        <ele>429</ele>
        <time>2019-05-06T12:23:41Z</time>
      </trkpt>
      <trkpt lat="48.02416" lon="7.10026">
        <ele>431</ele>
        <time>2019-05-06T12:24:41Z</time>
      </trkpt>
      <trkpt lat="48.0235" lon="7.10176">
        <ele>440</ele>
        <time>2019-05-06T12:25:41Z</time>
      </trkpt>
      <trkpt lat="48.0239" lon="7.10288">
        <ele>441</ele>
        <time>2019-05-06T12:26:41Z</time>
      </trkpt>
      <trkpt lat="48.02472" lon="7.10352">
        <ele>435</ele>
        <time>2019-05-06T12:27:41Z</time>
      </trkpt>
      <trkpt lat="48.02573" lon="7.10781">
        <ele>443</ele>
        <time>2019-05-06T12:28:41Z</time>
      </trkpt>
      <trkpt lat="48.02651" lon="7.11103">
        <ele>468</ele>
        <time>2019-05-06T12:29:41Z</time>
      </trkpt>
      <trkpt lat="48.02743" lon="7.11657">
        <ele>504</ele>
        <time>2019-05-06T12:30:41Z</time>
      </trkpt>
      <trkpt lat="48.02758" lon="7.11775">
        <ele>506</ele>
        <time>2019-05-06T12:31:41Z</time>
      </trkpt>
      <trkpt lat="48.0261" lon="7.12073">
        <ele>526</ele>
        <time>2019-05-06T12:32:41Z</time>
      </trkpt>
      <trkpt lat="48.02649" lon="7.11841">
        <ele>544</ele>
        <time>2019-05-06T12:33:41Z</time>
      </trkpt>
      <trkpt lat="48.02462" lon="7.11412">
        <ele>579</ele>
        <time>2019-05-06T12:34:41Z</time>
      </trkpt>
      <trkpt lat="48.02511" lon="7.11663">
        <ele>595</ele>
        <time>2019-05-06T12:35:41Z</time>
      </trkpt>
      <trkpt lat="48.02469" lon="7.11833">
        <ele>599</ele>
        <time>2019-05-06T12:36:41Z</time>
      </trkpt>
      <trkpt lat="48.02452" lon="7.11676">
        <ele>609</ele>
        <time>2019-05-06T12:37:41Z</time>
      </trkpt>
      <trkpt lat="48.02293" lon="7.11313">
        <ele>626</ele>
        <time>2019-05-06T12:38:41Z</time>
      </trkpt>
      <trkpt lat="48.02294" lon="7.11416">
        <ele>634</ele>
        <time>2019-05-06T12:39:41Z</time>
      </trkpt>
      <trkpt lat="48.02308" lon="7.11536">
        <ele>641</ele>
        <time>2019-05-06T12:40:41Z</time>
      </trkpt>
      <trkpt lat="48.02248" lon="7.11639">
        <ele>644</ele>
        <time>2019-05-06T12:41:41Z</time>
      </trkpt>
      <trkpt lat="48.02105" lon="7.11691">
        <ele>664</ele>
        <time>2019-05-06T12:42:41Z</time>
      </trkpt>
      <trkpt lat="48.01961" lon="7.1182">
        <ele>678</ele>
        <time>2019-05-06T12:43:41Z</time>
      </trkpt>
      <trkpt lat="48.01915" lon="7.1197">
        <ele>688</ele>
        <time>2019-05-06T12:44:41Z</time>
      </trkpt>
      <trkpt lat="48.01918" lon="7.12116">
        <ele>698</ele>
        <time>2019-05-06T12:45:41Z</time>
      </trkpt>
      <trkpt lat="48.01938" lon="7.12197">
        <ele>702</ele>
        <time>2019-05-06T12:46:41Z</time>
      </trkpt>
      <trkpt lat="48.01886" lon="7.12268">
        <ele>713</ele>
        <time>2019-05-06T12:47:41Z</time>
      </trkpt>
      <trkpt lat="48.01823" lon="7.12257">
        <ele>721</ele>
        <time>2019-05-06T12:48:41Z</time>
      </trkpt>
      <trkpt lat="48.01647" lon="7.1227">
        <ele>730</ele>
        <time>2019-05-06T12:49:41Z</time>
      </trkpt>
      <trkpt lat="48.01498" lon="7.12182">
        <ele>741</ele>
        <time>2019-05-06T12:50:41Z</time>
      </trkpt>
      <trkpt lat="48.01292" lon="7.12197">
        <ele>744</ele>
        <time>2019-05-06T12:51:41Z</time>
      </trkpt>
      <trkpt lat="48.01218" lon="7.1218">
        <ele>745</ele>
        <time>2019-05-06T12:52:41Z</time>
      </trkpt>
      <trkpt lat="48.01147" lon="7.12298">
        <ele>743</ele>
        <time>2019-05-06T12:53:41Z</time>
      </trkpt>
      <trkpt lat="48.01199" lon="7.12133">
        <ele>750</ele>
        <time>2019-05-06T12:54:41Z</time>
      </trkpt>
      <trkpt lat="48.01233" lon="7.12092">
        <ele>753</ele>
        <time>2019-05-06T12:55:41Z</time>
      </trkpt>
      <trkpt lat="48.01192" lon="7.12054">
        <ele>756</ele>
        <time>2019-05-06T12:56:41Z</time>
      </trkpt>
      <trkpt lat="48.01117" lon="7.12099">
        <ele>758</ele>
        <time>2019-05-06T12:57:41Z</time>
      </trkpt>
      <trkpt lat="48.01037" lon="7.12163">
        <ele>770</ele>
        <time>2019-05-06T12:58:41Z</time>
      </trkpt>
      <trkpt lat="48.00952" lon="7.12118">
        <ele>784</ele>
        <time>2019-05-06T12:59:41Z</time>
      </trkpt>
      <trkpt lat="48.00801" lon="7.12129">
        <ele>809</ele>
        <time>2019-05-06T13:00:41Z</time>
      </trkpt>
      <trkpt lat="48.00659" lon="7.12206">
        <ele>811</ele>
        <time>2019-05-06T13:01:41Z</time>
      </trkpt>
      <trkpt lat="48.00609" lon="7.12296">
        <ele>812</ele>
        <time>2019-05-06T13:02:41Z</time>
      </trkpt>
      <trkpt lat="48.00549" lon="7.1232">
        <ele>814</ele>
        <time>2019-05-06T13:03:41Z</time>
      </trkpt>
      <trkpt lat="48.00465" lon="7.12242">
        <ele>813</ele>
        <time>2019-05-06T13:04:41Z</time>
      </trkpt>
      <trkpt lat="48.00325" lon="7.12019">
        <ele>819</ele>
        <time>2019-05-06T13:05:41Z</time>
      </trkpt>
      <trkpt lat="48.0015" lon="7.11978">
        <ele>843</ele>
        <time>2019-05-06T13:06:41Z</time>
      </trkpt>
      <trkpt lat="47.9996" lon="7.11927">
        <ele>857</ele>
        <time>2019-05-06T13:07:41Z</time>
      </trkpt>
      <trkpt lat="48.00152" lon="7.11721">
        <ele>840</ele>
        <time>2019-05-06T13:08:41Z</time>
      </trkpt>
      <trkpt lat="48.00158" lon="7.11451">
        <ele>861</ele>
        <time>2019-05-06T13:09:41Z</time>
      </trkpt>
      <trkpt lat="48.00147" lon="7.11285">
        <ele>869</ele>
        <time>2019-05-06T13:10:41Z</time>
      </trkpt>
      <trkpt lat="48.00267" lon="7.11032">
        <ele>864</ele>
        <time>2019-05-06T13:11:41Z</time>
      </trkpt>
      <trkpt lat="48.00366" lon="7.10798">
        <ele>885</ele>
        <time>2019-05-06T13:12:41Z</time>
      </trkpt>
      <trkpt lat="48.00361" lon="7.10712">
        <ele>888</ele>
        <time>2019-05-06T13:13:41Z</time>
      </trkpt>
      <trkpt lat="48.00167" lon="7.1062">
        <ele>913</ele>
        <time>2019-05-06T13:14:41Z</time>
      </trkpt>
      <trkpt lat="48.00015" lon="7.10627">
        <ele>928</ele>
        <time>2019-05-06T13:15:41Z</time>
      </trkpt>
      <trkpt lat="47.99851" lon="7.10715">
        <ele>951</ele>
        <time>2019-05-06T13:16:41Z</time>
      </trkpt>
      <trkpt lat="47.99776" lon="7.10695">
        <ele>960</ele>
        <time>2019-05-06T13:17:41Z</time>
      </trkpt>
      <trkpt lat="47.99725" lon="7.10633">
        <ele>965</ele>
        <time>2019-05-06T13:18:41Z</time>
      </trkpt>
      <trkpt lat="47.99693" lon="7.10524">
        <ele>971</ele>
        <time>2019-05-06T13:19:41Z</time>
      </trkpt>
      <trkpt lat="47.99674" lon="7.10376">
        <ele>983</ele>
        <time>2019-05-06T13:20:41Z</time>
      </trkpt>
      <trkpt lat="47.99673" lon="7.10253">
        <ele>986</ele>
        <time>2019-05-06T13:21:41Z</time>
      </trkpt>
      <trkpt lat="47.99696" lon="7.10167">
        <ele>988</ele>
        <time>2019-05-06T13:22:41Z</time>
      </trkpt>
      <trkpt lat="47.99691" lon="7.10024">
        <ele>987</ele>
        <time>2019-05-06T13:23:41Z</time>
      </trkpt>
      <trkpt lat="47.99604" lon="7.09949">
        <ele>994</ele>
        <time>2019-05-06T13:24:41Z</time>
      </trkpt>
      <trkpt lat="47.99399" lon="7.10047">
        <ele>1005</ele>
        <time>2019-05-06T13:25:41Z</time>
      </trkpt>
      <trkpt lat="47.99205" lon="7.10049">
        <ele>1000</ele>
        <time>2019-05-06T13:26:41Z</time>
      </trkpt>
      <trkpt lat="47.99032" lon="7.10313">
        <ele>1005</ele>
        <time>2019-05-06T13:27:41Z</time>
      </trkpt>
      <trkpt lat="47.9903" lon="7.10358">
        <ele>1011</ele>
        <time>2019-05-06T13:28:41Z</time>
      </trkpt>
      <trkpt lat="47.98975" lon="7.10391">
        <ele>998</ele>
        <time>2019-05-06T13:29:41Z</time>
      </trkpt>
      <trkpt lat="47.98926" lon="7.10584">
        <ele>1005</ele>
        <time>2019-05-06T13:30:41Z</time>
      </trkpt>
      <trkpt lat="47.98804" lon="7.10702">
        <ele>1001</ele>
        <time>2019-05-06T13:31:41Z</time>
      </trkpt>
      <trkpt lat="47.98757" lon="7.10803">
        <ele>1008</ele>
        <time>2019-05-06T13:32:41Z</time>
      </trkpt>
      <trkpt lat="47.98652" lon="7.10914">
        <ele>1000</ele>
        <time>2019-05-06T13:33:41Z</time>
      </trkpt>
      <trkpt lat="47.98675" lon="7.11176">
        <ele>1019</ele>
        <time>2019-05-06T13:34:41Z</time>
      </trkpt>
      <trkpt lat="47.98584" lon="7.11195">
        <ele>1009</ele>
        <time>2019-05-06T13:35:41Z</time>
      </trkpt>
      <trkpt lat="47.98413" lon="7.11281">
        <ele>1011</ele>
        <time>2019-05-06T13:36:41Z</time>
      </trkpt>
      <trkpt lat="47.98385" lon="7.11159">
        <ele>1011</ele>
        <time>2019-05-06T13:37:41Z</time>
      </trkpt>
      <trkpt lat="47.98273" lon="7.1118">
        <ele>1027</ele>
        <time>2019-05-06T13:38:41Z</time>
      </trkpt>
      <trkpt lat="47.98218" lon="7.11275">
        <ele>1045</ele>
        <time>2019-05-06T13:39:41Z</time>
      </trkpt>
      <trkpt lat="47.98133" lon="7.11069">
        <ele>1035</ele>
        <time>2019-05-06T13:40:41Z</time>
      </trkpt>
      <trkpt lat="47.98184" lon="7.10908">
        <ele>1014</ele>
        <time>2019-05-06T13:41:41Z</time>
      </trkpt>
      <trkpt lat="47.98178" lon="7.10545">
        <ele>997</ele>
        <time>2019-05-06T13:42:41Z</time>
      </trkpt>
      <trkpt lat="47.9813" lon="7.10421">
        <ele>1001</ele>
        <time>2019-05-06T13:43:41Z</time>
      </trkpt>
      <trkpt lat="47.98115" lon="7.1032">
        <ele>997</ele>
        <time>2019-05-06T13:44:41Z</time>
      </trkpt>
      <trkpt lat="47.98097" lon="7.10122">
        <ele>987</ele>
        <time>2019-05-06T13:45:41Z</time>
      </trkpt>
      <trkpt lat="47.9806" lon="7.10026">
        <ele>988</ele>
        <time>2019-05-06T13:46:41Z</time>
      </trkpt>
      <trkpt lat="47.9807" lon="7.09831">
        <ele>974</ele>
        <time>2019-05-06T13:47:41Z</time>
      </trkpt>
      <trkpt lat="47.97972" lon="7.09792">
        <ele>975</ele>
        <time>2019-05-06T13:48:41Z</time>
      </trkpt>
      <trkpt lat="47.9784" lon="7.09764">
        <ele>975</ele>
        <time>2019-05-06T13:49:41Z</time>
      </trkpt>
      <trkpt lat="47.97682" lon="7.0968">
        <ele>974</ele>
        <time>2019-05-06T13:50:41Z</time>
      </trkpt>
      <trkpt lat="47.97553" lon="7.09543">
        <ele>956</ele>
        <time>2019-05-06T13:51:41Z</time>
      </trkpt>
      <trkpt lat="47.97445" lon="7.0947">
        <ele>960</ele>
        <time>2019-05-06T13:52:41Z</time>
      </trkpt>
      <trkpt lat="47.97398" lon="7.09365">
        <ele>952</ele>
        <time>2019-05-06T13:53:41Z</time>
      </trkpt>
      <trkpt lat="47.97361" lon="7.09236">
        <ele>950</ele>
        <time>2019-05-06T13:54:41Z</time>
      </trkpt>
      <trkpt lat="47.97329" lon="7.08942">
        <ele>950</ele>
        <time>2019-05-06T13:55:41Z</time>
      </trkpt>
      <trkpt lat="47.97363" lon="7.08884">
        <ele>949</ele>
        <time>2019-05-06T13:56:41Z</time>
      </trkpt>
      <trkpt lat="47.97527" lon="7.0891">
        <ele>917</ele>
        <time>2019-05-06T13:57:41Z</time>
      </trkpt>
      <trkpt lat="47.97567" lon="7.08833">
        <ele>918</ele>
        <time>2019-05-06T13:58:41Z</time>
      </trkpt>
      <trkpt lat="47.97592" lon="7.08738">
        <ele>914</ele>
        <time>2019-05-06T13:59:41Z</time>
      </trkpt>
      <trkpt lat="47.97633" lon="7.0867">
        <ele>917</ele>
        <time>2019-05-06T14:00:41Z</time>
      </trkpt>
      <trkpt lat="47.97679" lon="7.08627">
        <ele>916</ele>
        <time>2019-05-06T14:01:41Z</time>
      </trkpt>
      <trkpt lat="47.97823" lon="7.08575">
        <ele>904</ele>
        <time>2019-05-06T14:02:41Z</time>
      </trkpt>
      <trkpt lat="47.97912" lon="7.08584">
        <ele>896</ele>
        <time>2019-05-06T14:03:41Z</time>
      </trkpt>
      <trkpt lat="47.97947" lon="7.08532">
        <ele>889</ele>
        <time>2019-05-06T14:04:41Z</time>
      </trkpt>
      <trkpt lat="47.98004" lon="7.08253">
        <ele>877</ele>
        <time>2019-05-06T14:05:41Z</time>
      </trkpt>
      <trkpt lat="47.98073" lon="7.07901">
        <ele>857</ele>
        <time>2019-05-06T14:06:41Z</time>
      </trkpt>
      <trkpt lat="47.98046" lon="7.07818">
        <ele>863</ele>
        <time>2019-05-06T14:07:41Z</time>
      </trkpt>
      <trkpt lat="47.97793" lon="7.07462">
        <ele>891</ele>
        <time>2019-05-06T14:08:41Z</time>
      </trkpt>
      <trkpt lat="47.97477" lon="7.07346">
        <ele>918</ele>
        <time>2019-05-06T14:09:41Z</time>
      </trkpt>
      <trkpt lat="47.97378" lon="7.07324">
        <ele>932</ele>
        <time>2019-05-06T14:10:41Z</time>
      </trkpt>
      <trkpt lat="47.97303" lon="7.07251">
        <ele>937</ele>
        <time>2019-05-06T14:11:41Z</time>
      </trkpt>
      <trkpt lat="47.97225" lon="7.0705">
        <ele>937</ele>
        <time>2019-05-06T14:12:41Z</time>
      </trkpt>
      <trkpt lat="47.97231" lon="7.07288">
        <ele>970</ele>
        <time>2019-05-06T14:13:41Z</time>
      </trkpt>
      <trkpt lat="47.97307" lon="7.07406">
        <ele>979</ele>
        <time>2019-05-06T14:14:41Z</time>
      </trkpt>
      <trkpt lat="47.97503" lon="7.07616">
        <ele>992</ele>
        <time>2019-05-06T14:15:41Z</time>
      </trkpt>
      <trkpt lat="47.97254" lon="7.07489">
        <ele>1018</ele>
        <time>2019-05-06T14:16:41Z</time>
      </trkpt>
      <trkpt lat="47.97146" lon="7.07468">
        <ele>1032</ele>
        <time>2019-05-06T14:17:41Z</time>
      </trkpt>
      <trkpt lat="47.97044" lon="7.07402">
        <ele>1029</ele>
        <time>2019-05-06T14:18:41Z</time>
      </trkpt>
      <trkpt lat="47.97017" lon="7.07425">
        <ele>1032</ele>
        <time>2019-05-06T14:19:41Z</time>
      </trkpt>
      <trkpt lat="47.97076" lon="7.07509">
        <ele>1051</ele>
        <time>2019-05-06T14:20:41Z</time>
      </trkpt>
      <trkpt lat="47.97267" lon="7.07603">
        <ele>1051</ele>
        <time>2019-05-06T14:21:41Z</time>
      </trkpt>
      <trkpt lat="47.97339" lon="7.077">
        <ele>1056</ele>
        <time>2019-05-06T14:22:41Z</time>
      </trkpt>
      <trkpt lat="47.97371" lon="7.07859">
        <ele>1062</ele>
        <time>2019-05-06T14:23:41Z</time>
      </trkpt>
      <trkpt lat="47.97366" lon="7.08024">
        <ele>1069</ele>
        <time>2019-05-06T14:24:41Z</time>
      </trkpt>
      <trkpt lat="47.97348" lon="7.08148">
        <ele>1075</ele>
        <time>2019-05-06T14:25:41Z</time>
      </trkpt>
      <trkpt lat="47.97292" lon="7.08339">
        <ele>1084</ele>
        <time>2019-05-06T14:26:41Z</time>
      </trkpt>
      <trkpt lat="47.97261" lon="7.08453">
        <ele>1076</ele>
        <time>2019-05-06T14:27:41Z</time>
      </trkpt>
      <trkpt lat="47.97207" lon="7.08459">
        <ele>1079</ele>
        <time>2019-05-06T14:28:41Z</time>
      </trkpt>
      <trkpt lat="47.97132" lon="7.08455">
        <ele>1086</ele>
        <time>2019-05-06T14:29:41Z</time>
      </trkpt>
      <trkpt lat="47.97" lon="7.08539">
        <ele>1085</ele>
        <time>2019-05-06T14:30:41Z</time>
      </trkpt>
      <trkpt lat="47.96944" lon="7.0864">
        <ele>1088</ele>
        <time>2019-05-06T14:31:41Z</time>
      </trkpt>
      <trkpt lat="47.96911" lon="7.08811">
        <ele>1087</ele>
        <time>2019-05-06T14:32:41Z</time>
      </trkpt>
      <trkpt lat="47.96925" lon="7.09073">
        <ele>1081</ele>
        <time>2019-05-06T14:33:41Z</time>
      </trkpt>
      <trkpt lat="47.97016" lon="7.09335">
        <ele>1070</ele>
        <time>2019-05-06T14:34:41Z</time>
      </trkpt>
      <trkpt lat="47.97139" lon="7.0953">
        <ele>1057</ele>
        <time>2019-05-06T14:35:41Z</time>
      </trkpt>
      <trkpt lat="47.97398" lon="7.09899">
        <ele>1063</ele>
        <time>2019-05-06T14:36:41Z</time>
      </trkpt>
      <trkpt lat="47.97654" lon="7.09991">
        <ele>1047</ele>
        <time>2019-05-06T14:37:41Z</time>
      </trkpt>
      <trkpt lat="47.9797" lon="7.10082">
        <ele>1037</ele>
        <time>2019-05-06T14:38:41Z</time>
      </trkpt>
      <trkpt lat="47.97991" lon="7.10247">
        <ele>1047</ele>
        <time>2019-05-06T14:39:41Z</time>
      </trkpt>
      <trkpt lat="47.98026" lon="7.10614">
        <ele>1072</ele>
        <time>2019-05-06T14:40:41Z</time>
      </trkpt>
      <trkpt lat="47.98033" lon="7.10901">
        <ele>1090</ele>
        <time>2019-05-06T14:41:41Z</time>
      </trkpt>
      <trkpt lat="47.98018" lon="7.11195">
        <ele>1106</ele>
        <time>2019-05-06T14:42:41Z</time>
      </trkpt>
      <trkpt lat="47.98037" lon="7.11496">
        <ele>1123</ele>
        <time>2019-05-06T14:43:41Z</time>
      </trkpt>
      <trkpt lat="47.9803" lon="7.11732">
        <ele>1131</ele>
        <time>2019-05-06T14:44:41Z</time>
      </trkpt>
      <trkpt lat="47.9801" lon="7.11785">
        <ele>1143</ele>
        <time>2019-05-06T14:45:41Z</time>
      </trkpt>
      <trkpt lat="47.98049" lon="7.11848">
        <ele>1138</ele>
        <time>2019-05-06T14:46:41Z</time>
      </trkpt>
      <trkpt lat="47.98089" lon="7.11944">
        <ele>1146</ele>
        <time>2019-05-06T14:47:41Z</time>
      </trkpt>
      <trkpt lat="47.98141" lon="7.11989">
        <ele>1146</ele>
        <time>2019-05-06T14:48:41Z</time>
      </trkpt>
      <trkpt lat="47.98225" lon="7.12002">
        <ele>1145</ele>
        <time>2019-05-06T14:49:41Z</time>
      </trkpt>
      <trkpt lat="47.9833" lon="7.12043">
        <ele>1156</ele>
        <time>2019-05-06T14:50:41Z</time>
      </trkpt>
      <trkpt lat="47.98441" lon="7.12028">
        <ele>1155</ele>
        <time>2019-05-06T14:51:41Z</time>
      </trkpt>
      <trkpt lat="47.98504" lon="7.12056">
        <ele>1160</ele>
        <time>2019-05-06T14:52:41Z</time>
      </trkpt>
      <trkpt lat="47.98504" lon="7.12105">
        <ele>1163</ele>
        <time>2019-05-06T14:53:41Z</time>
      </trkpt>
      <trkpt lat="47.9854" lon="7.12249">
        <ele>1161</ele>
        <time>2019-05-06T14:54:41Z</time>
      </trkpt>
      <trkpt lat="47.98523" lon="7.12384">
        <ele>1164</ele>
        <time>2019-05-06T14:55:41Z</time>
      </trkpt>
      <trkpt lat="47.98492" lon="7.12504">
        <ele>1166</ele>
        <time>2019-05-06T14:56:41Z</time>
      </trkpt>
      <trkpt lat="47.98475" lon="7.12678">
        <ele>1166</ele>
        <time>2019-05-06T14:57:41Z</time>
      </trkpt>
      <trkpt lat="47.98484" lon="7.12779">
        <ele>1164</ele>
        <time>2019-05-06T14:58:41Z</time>
      </trkpt>
      <trkpt lat="47.98544" lon="7.12914">
        <ele>1158</ele>
        <time>2019-05-06T14:59:41Z</time>
      </trkpt>
      <trkpt lat="47.98564" lon="7.1303">
        <ele>1156</ele>
        <time>2019-05-06T15:00:41Z</time>
      </trkpt>
      <trkpt lat="47.98488" lon="7.13289">
        <ele>1120</ele>
        <time>2019-05-06T15:01:41Z</time>
      </trkpt>
      <trkpt lat="47.98583" lon="7.13266">
        <ele>1114</ele>
        <time>2019-05-06T15:02:41Z</time>
      </trkpt>
      <trkpt lat="47.98504" lon="7.13373">
        <ele>1098</ele>
        <time>2019-05-06T15:03:41Z</time>
      </trkpt>
      <trkpt lat="47.98442" lon="7.13375">
        <ele>1096</ele>
        <time>2019-05-06T15:04:41Z</time>
      </trkpt>
      <trkpt lat="47.9832" lon="7.13262">
        <ele>1101</ele>
        <time>2019-05-06T15:05:41Z</time>
      </trkpt>
      <trkpt lat="47.9836" lon="7.13305">
        <ele>1096</ele>
        <time>2019-05-06T15:06:41Z</time>
      </trkpt>
      <trkpt lat="47.98291" lon="7.1327">
        <ele>1093</ele>
        <time>2019-05-06T15:07:41Z</time>
      </trkpt>
      <trkpt lat="47.98146" lon="7.13236">
        <ele>1095</ele>
        <time>2019-05-06T15:08:41Z</time>
      </trkpt>
      <trkpt lat="47.97967" lon="7.13227">
        <ele>1120</ele>
        <time>2019-05-06T15:09:41Z</time>
      </trkpt>
      <trkpt lat="47.97916" lon="7.13335">
        <ele>1118</ele>
        <time>2019-05-06T15:10:41Z</time>
      </trkpt>
      <trkpt lat="47.97682" lon="7.13463">
        <ele>1147</ele>
        <time>2019-05-06T15:11:41Z</time>
      </trkpt>
      <trkpt lat="47.97519" lon="7.13438">
        <ele>1139</ele>
        <time>2019-05-06T15:12:41Z</time>
      </trkpt>
      <trkpt lat="47.9748" lon="7.13444">
        <ele>1132</ele>
        <time>2019-05-06T15:13:41Z</time>
      </trkpt>
      <trkpt lat="47.97431" lon="7.13384">
        <ele>1135</ele>
        <time>2019-05-06T15:14:41Z</time>
      </trkpt>
      <trkpt lat="47.97391" lon="7.13367">
        <ele>1129</ele>
        <time>2019-05-06T15:15:41Z</time>
      </trkpt>
      <trkpt lat="47.97267" lon="7.13412">
        <ele>1105</ele>
        <time>2019-05-06T15:16:41Z</time>
      </trkpt>
      <trkpt lat="47.97182" lon="7.13506">
        <ele>1101</ele>
        <time>2019-05-06T15:17:41Z</time>
      </trkpt>
      <trkpt lat="47.9709" lon="7.13455">
        <ele>1089</ele>
        <time>2019-05-06T15:18:41Z</time>
      </trkpt>
      <trkpt lat="47.9705" lon="7.13365">
        <ele>1075</ele>
        <time>2019-05-06T15:19:41Z</time>
      </trkpt>
      <trkpt lat="47.96937" lon="7.13229">
        <ele>1052</ele>
        <time>2019-05-06T15:20:41Z</time>
      </trkpt>
      <trkpt lat="47.96779" lon="7.13244">
        <ele>1034</ele>
        <time>2019-05-06T15:21:41Z</time>
      </trkpt>
      <trkpt lat="47.96647" lon="7.13285">
        <ele>1013</ele>
        <time>2019-05-06T15:22:41Z</time>
      </trkpt>
      <trkpt lat="47.96792" lon="7.13377">
        <ele>1011</ele>
        <time>2019-05-06T15:23:41Z</time>
      </trkpt>
      <trkpt lat="47.96858" lon="7.13541">
        <ele>1002</ele>
        <time>2019-05-06T15:24:41Z</time>
      </trkpt>
      <trkpt lat="47.96889" lon="7.13897">
        <ele>971</ele>
        <time>2019-05-06T15:25:41Z</time>
      </trkpt>
      <trkpt lat="47.96978" lon="7.14">
        <ele>953</ele>
        <time>2019-05-06T15:26:41Z</time>
      </trkpt>
      <trkpt lat="47.9705" lon="7.13923">
        <ele>971</ele>
        <time>2019-05-06T15:27:41Z</time>
      </trkpt>
      <trkpt lat="47.97243" lon="7.13953">
        <ele>950</ele>
        <time>2019-05-06T15:28:41Z</time>
      </trkpt>
      <trkpt lat="47.97292" lon="7.14038">
        <ele>927</ele>
        <time>2019-05-06T15:29:41Z</time>
      </trkpt>
      <trkpt lat="47.97441" lon="7.14094">
        <ele>937</ele>
        <time>2019-05-06T15:30:41Z</time>
      </trkpt>
      <trkpt lat="47.97369" lon="7.14296">
        <ele>895</ele>
        <time>2019-05-06T15:31:41Z</time>
      </trkpt>
      <trkpt lat="47.9745" lon="7.14489">
        <ele>889</ele>
        <time>2019-05-06T15:32:41Z</time>
      </trkpt>
      <trkpt lat="47.9753" lon="7.14558">
        <ele>896</ele>
        <time>2019-05-06T15:33:41Z</time>
      </trkpt>
      <trkpt lat="47.97654" lon="7.14798">
        <ele>873</ele>
        <time>2019-05-06T15:34:41Z</time>
      </trkpt>
      <trkpt lat="47.97737" lon="7.14706">
        <ele>876</ele>
        <time>2019-05-06T15:35:41Z</time>
      </trkpt>
      <trkpt lat="47.97858" lon="7.14549">
        <ele>894</ele>
        <time>2019-05-06T15:36:41Z</time>
      </trkpt>
      <trkpt lat="47.98089" lon="7.14609">
        <ele>869</ele>
        <time>2019-05-06T15:37:41Z</time>
      </trkpt>
      <trkpt lat="47.98069" lon="7.14371">
        <ele>872</ele>
        <time>2019-05-06T15:38:41Z</time>
      </trkpt>
      <trkpt lat="47.98083" lon="7.1427">
        <ele>871</ele>
        <time>2019-05-06T15:39:41Z</time>
      </trkpt>
      <trkpt lat="47.98198" lon="7.14515">
        <ele>833</ele>
        <time>2019-05-06T15:40:41Z</time>
      </trkpt>
      <trkpt lat="47.98309" lon="7.14571">
        <ele>826</ele>
        <time>2019-05-06T15:41:41Z</time>
      </trkpt>
      <trkpt lat="47.98365" lon="7.14742">
        <ele>812</ele>
        <time>2019-05-06T15:42:41Z</time>
      </trkpt>
      <trkpt lat="47.98363" lon="7.14839">
        <ele>795</ele>
        <time>2019-05-06T15:43:41Z</time>
      </trkpt>
      <trkpt lat="47.98419" lon="7.1495">
        <ele>795</ele>
        <time>2019-05-06T15:44:41Z</time>
      </trkpt>
      <trkpt lat="47.98534" lon="7.1488">
        <ele>800</ele>
        <time>2019-05-06T15:45:41Z</time>
      </trkpt>
      <trkpt lat="47.98653" lon="7.14925">
        <ele>779</ele>
        <time>2019-05-06T15:46:41Z</time>
      </trkpt>
      <trkpt lat="47.98705" lon="7.14983">
        <ele>759</ele>
        <time>2019-05-06T15:47:41Z</time>
      </trkpt>
      <trkpt lat="47.9882" lon="7.14925">
        <ele>778</ele>
        <time>2019-05-06T15:48:41Z</time>
      </trkpt>
      <trkpt lat="47.9888" lon="7.15109">
        <ele>760</ele>
        <time>2019-05-06T15:49:41Z</time>
      </trkpt>
      <trkpt lat="47.99012" lon="7.15274">
        <ele>779</ele>
        <time>2019-05-06T15:50:41Z</time>
      </trkpt>
      <trkpt lat="47.98945" lon="7.15337">
        <ele>759</ele>
        <time>2019-05-06T15:51:41Z</time>
      </trkpt>
      <trkpt lat="47.99119" lon="7.1554">
        <ele>770</ele>
        <time>2019-05-06T15:52:41Z</time>
      </trkpt>
      <trkpt lat="47.99294" lon="7.15519">
        <ele>788</ele>
        <time>2019-05-06T15:53:41Z</time>
      </trkpt>
      <trkpt lat="47.99429" lon="7.15669">
        <ele>769</ele>
        <time>2019-05-06T15:54:41Z</time>
      </trkpt>
      <trkpt lat="47.99502" lon="7.15669">
        <ele>760</ele>
        <time>2019-05-06T15:55:41Z</time>
      </trkpt>
      <trkpt lat="47.99495" lon="7.15422">
        <ele>760</ele>
        <time>2019-05-06T15:56:41Z</time>
      </trkpt>
      <trkpt lat="47.99522" lon="7.15345">
        <ele>748</ele>
        <time>2019-05-06T15:57:41Z</time>
      </trkpt>
      <trkpt lat="47.99518" lon="7.15216">
        <ele>740</ele>
        <time>2019-05-06T15:58:41Z</time>
      </trkpt>
      <trkpt lat="47.99495" lon="7.15105">
        <ele>731</ele>
        <time>2019-05-06T15:59:41Z</time>
      </trkpt>
      <trkpt lat="47.9945" lon="7.14993">
        <ele>729</ele>
        <time>2019-05-06T16:00:41Z</time>
      </trkpt>
      <trkpt lat="47.9934" lon="7.14815">
        <ele>744</ele>
        <time>2019-05-06T16:01:41Z</time>
      </trkpt>
      <trkpt lat="47.99297" lon="7.14693">
        <ele>756</ele>
        <time>2019-05-06T16:02:41Z</time>
      </trkpt>
      <trkpt lat="47.99292" lon="7.14573">
        <ele>770</ele>
        <time>2019-05-06T16:03:41Z</time>
      </trkpt>
      <trkpt lat="47.99348" lon="7.14607">
        <ele>766</ele>
        <time>2019-05-06T16:04:41Z</time>
      </trkpt>
      <trkpt lat="47.99489" lon="7.14682">
        <ele>771</ele>
        <time>2019-05-06T16:05:41Z</time>
      </trkpt>
      <trkpt lat="47.99673" lon="7.14772">
        <ele>758</ele>
        <time>2019-05-06T16:06:41Z</time>
      </trkpt>
      <trkpt lat="47.99747" lon="7.14689">
        <ele>763</ele>
        <time>2019-05-06T16:07:41Z</time>
      </trkpt>
      <trkpt lat="47.99824" lon="7.14643">
        <ele>744</ele>
        <time>2019-05-06T16:08:41Z</time>
      </trkpt>
      <trkpt lat="47.99716" lon="7.14405">
        <ele>767</ele>
        <time>2019-05-06T16:09:41Z</time>
      </trkpt>
      <trkpt lat="47.99687" lon="7.14277">
        <ele>763</ele>
        <time>2019-05-06T16:10:41Z</time>
      </trkpt>
      <trkpt lat="47.99646" lon="7.1415">
        <ele>764</ele>
        <time>2019-05-06T16:11:41Z</time>
      </trkpt>
      <trkpt lat="47.99719" lon="7.14133">
        <ele>757</ele>
        <time>2019-05-06T16:12:41Z</time>
      </trkpt>
      <trkpt lat="47.99826" lon="7.14266">
        <ele>747</ele>
        <time>2019-05-06T16:13:41Z</time>
      </trkpt>
      <trkpt lat="48.00022" lon="7.14339">
        <ele>753</ele>
        <time>2019-05-06T16:14:41Z</time>
      </trkpt>
      <trkpt lat="48.00228" lon="7.14345">
        <ele>778</ele>
        <time>2019-05-06T16:15:41Z</time>
      </trkpt>
      <trkpt lat="48.00336" lon="7.14255">
        <ele>797</ele>
        <time>2019-05-06T16:16:41Z</time>
      </trkpt>
      <trkpt lat="48.00431" lon="7.14289">
        <ele>814</ele>
        <time>2019-05-06T16:17:41Z</time>
      </trkpt>
      <trkpt lat="48.00473" lon="7.14373">
        <ele>819</ele>
        <time>2019-05-06T16:18:41Z</time>
      </trkpt>
      <trkpt lat="48.00526" lon="7.14628">
        <ele>813</ele>
        <time>2019-05-06T16:19:41Z</time>
      </trkpt>
      <trkpt lat="48.00653" lon="7.1468">
        <ele>833</ele>
        <time>2019-05-06T16:20:41Z</time>
      </trkpt>
      <trkpt lat="48.0076" lon="7.14815">
        <ele>831</ele>
        <time>2019-05-06T16:21:41Z</time>
      </trkpt>
      <trkpt lat="48.00761" lon="7.15021">
        <ele>832</ele>
        <time>2019-05-06T16:22:41Z</time>
      </trkpt>
      <trkpt lat="48.00862" lon="7.15227">
        <ele>833</ele>
        <time>2019-05-06T16:23:41Z</time>
      </trkpt>
      <trkpt lat="48.00923" lon="7.15296">
        <ele>830</ele>
        <time>2019-05-06T16:24:41Z</time>
      </trkpt>
      <trkpt lat="48.0089" lon="7.15234">
        <ele>833</ele>
        <time>2019-05-06T16:25:41Z</time>
      </trkpt>
      <trkpt lat="48.00816" lon="7.15098">
        <ele>845</ele>
        <time>2019-05-06T16:26:41Z</time>
      </trkpt>
      <trkpt lat="48.00811" lon="7.14983">
        <ele>849</ele>
        <time>2019-05-06T16:27:41Z</time>
      </trkpt>
      <trkpt lat="48.00839" lon="7.14862">
        <ele>858</ele>
        <time>2019-05-06T16:28:41Z</time>
      </trkpt>
      <trkpt lat="48.00819" lon="7.14669">
        <ele>856</ele>
        <time>2019-05-06T16:29:41Z</time>
      </trkpt>
      <trkpt lat="48.00666" lon="7.14523">
        <ele>875</ele>
        <time>2019-05-06T16:30:41Z</time>
      </trkpt>
      <trkpt lat="48.00666" lon="7.14392">
        <ele>879</ele>
        <time>2019-05-06T16:31:41Z</time>
      </trkpt>
      <trkpt lat="48.00616" lon="7.14214">
        <ele>880</ele>
        <time>2019-05-06T16:32:41Z</time>
      </trkpt>
      <trkpt lat="48.0061" lon="7.14116">
        <ele>891</ele>
        <time>2019-05-06T16:33:41Z</time>
      </trkpt>
      <trkpt lat="48.00497" lon="7.138">
        <ele>912</ele>
        <time>2019-05-06T16:34:41Z</time>
      </trkpt>
      <trkpt lat="48.00447" lon="7.13487">
        <ele>895</ele>
        <time>2019-05-06T16:35:41Z</time>
      </trkpt>
      <trkpt lat="48.00366" lon="7.13416">
        <ele>897</ele>
        <time>2019-05-06T16:36:41Z</time>
      </trkpt>
      <trkpt lat="48.00328" lon="7.13347">
        <ele>895</ele>
        <time>2019-05-06T16:37:41Z</time>
      </trkpt>
      <trkpt lat="48.00002" lon="7.12938">
        <ele>919</ele>
        <time>2019-05-06T16:38:41Z</time>
      </trkpt>
      <trkpt lat="47.99821" lon="7.12787">
        <ele>928</ele>
        <time>2019-05-06T16:39:41Z</time>
      </trkpt>
      <trkpt lat="47.99881" lon="7.12704">
        <ele>914</ele>
        <time>2019-05-06T16:40:41Z</time>
      </trkpt>
      <trkpt lat="48.00092" lon="7.12674">
        <ele>890</ele>
        <time>2019-05-06T16:41:41Z</time>
      </trkpt>
      <trkpt lat="48.00193" lon="7.12693">
        <ele>882</ele>
        <time>2019-05-06T16:42:41Z</time>
      </trkpt>
      <trkpt lat="48.00201" lon="7.12562">
        <ele>889</ele>
        <time>2019-05-06T16:43:41Z</time>
      </trkpt>
      <trkpt lat="48.00194" lon="7.12337">
        <ele>894</ele>
        <time>2019-05-06T16:44:41Z</time>
      </trkpt>
      <trkpt lat="47.99969" lon="7.12135">
        <ele>901</ele>
        <time>2019-05-06T16:45:41Z</time>
      </trkpt>
      <trkpt lat="47.99753" lon="7.11903">
        <ele>908</ele>
        <time>2019-05-06T16:46:41Z</time>
      </trkpt>
      <trkpt lat="47.99768" lon="7.1182">
        <ele>904</ele>
        <time>2019-05-06T16:47:41Z</time>
      </trkpt>
      <trkpt lat="47.99898" lon="7.1173">
        <ele>900</ele>
        <time>2019-05-06T16:48:41Z</time>
      </trkpt>
      <trkpt lat="48.0003" lon="7.11734">
        <ele>875</ele>
        <time>2019-05-06T16:49:41Z</time>
      </trkpt>
      <trkpt lat="48.00124" lon="7.11624">
        <ele>866</ele>
        <time>2019-05-06T16:50:41Z</time>
      </trkpt>
      <trkpt lat="48.00145" lon="7.11463">
        <ele>866</ele>
        <time>2019-05-06T16:51:41Z</time>
      </trkpt>
      <trkpt lat="48.00353" lon="7.11163">
        <ele>826</ele>
        <time>2019-05-06T16:52:41Z</time>
      </trkpt>
      <trkpt lat="48.0049" lon="7.11019">
        <ele>821</ele>
        <time>2019-05-06T16:53:41Z</time>
      </trkpt>
      <trkpt lat="48.00678" lon="7.11169">
        <ele>825</ele>
        <time>2019-05-06T16:54:41Z</time>
      </trkpt>
      <trkpt lat="48.00784" lon="7.11144">
        <ele>811</ele>
        <time>2019-05-06T16:55:41Z</time>
      </trkpt>
      <trkpt lat="48.00864" lon="7.10931">
        <ele>803</ele>
        <time>2019-05-06T16:56:41Z</time>
      </trkpt>
      <trkpt lat="48.00915" lon="7.10798">
        <ele>790</ele>
        <time>2019-05-06T16:57:41Z</time>
      </trkpt>
      <trkpt lat="48.00925" lon="7.10629">
        <ele>773</ele>
        <time>2019-05-06T16:58:41Z</time>
      </trkpt>
      <trkpt lat="48.00771" lon="7.10234">
        <ele>735</ele>
        <time>2019-05-06T16:59:41Z</time>
      </trkpt>
      <trkpt lat="48.00563" lon="7.10176">
        <ele>750</ele>
        <time>2019-05-06T17:00:41Z</time>
      </trkpt>
      <trkpt lat="48.0047" lon="7.1014">
        <ele>747</ele>
        <time>2019-05-06T17:01:41Z</time>
      </trkpt>
      <trkpt lat="48.00375" lon="7.10197">
        <ele>768</ele>
        <time>2019-05-06T17:02:41Z</time>
      </trkpt>
      <trkpt lat="48.00256" lon="7.10148">
        <ele>767</ele>
        <time>2019-05-06T17:03:41Z</time>
      </trkpt>
      <trkpt lat="48.00243" lon="7.10024">
        <ele>761</ele>
        <time>2019-05-06T17:04:41Z</time>
      </trkpt>
      <trkpt lat="48.00214" lon="7.09704">
        <ele>745</ele>
        <time>2019-05-06T17:05:41Z</time>
      </trkpt>
      <trkpt lat="48.0018" lon="7.09642">
        <ele>747</ele>
        <time>2019-05-06T17:06:41Z</time>
      </trkpt>
      <trkpt lat="47.99947" lon="7.09354">
        <ele>762</ele>
        <time>2019-05-06T17:07:41Z</time>
      </trkpt>
      <trkpt lat="47.9988" lon="7.09204">
        <ele>780</ele>
        <time>2019-05-06T17:08:41Z</time>
      </trkpt>
      <trkpt lat="47.99884" lon="7.09135">
        <ele>788</ele>
        <time>2019-05-06T17:09:41Z</time>
      </trkpt>
      <trkpt lat="47.99924" lon="7.09047">
        <ele>795</ele>
        <time>2019-05-06T17:10:41Z</time>
      </trkpt>
      <trkpt lat="48.00059" lon="7.08863">
        <ele>813</ele>
        <time>2019-05-06T17:11:41Z</time>
      </trkpt>
      <trkpt lat="48.002" lon="7.08904">
        <ele>798</ele>
        <time>2019-05-06T17:12:41Z</time>
      </trkpt>
      <trkpt lat="48.00351" lon="7.08908">
        <ele>784</ele>
        <time>2019-05-06T17:13:41Z</time>
      </trkpt>
      <trkpt lat="48.00464" lon="7.08912">
        <ele>775</ele>
        <time>2019-05-06T17:14:41Z</time>
      </trkpt>
      <trkpt lat="48.00554" lon="7.08775">
        <ele>780</ele>
        <time>2019-05-06T17:15:41Z</time>
      </trkpt>
      <trkpt lat="48.00613" lon="7.0876">
        <ele>778</ele>
        <time>2019-05-06T17:16:41Z</time>
      </trkpt>
      <trkpt lat="48.00707" lon="7.08818">
        <ele>775</ele>
        <time>2019-05-06T17:17:41Z</time>
      </trkpt>
      <trkpt lat="48.0076" lon="7.08818">
        <ele>776</ele>
        <time>2019-05-06T17:18:41Z</time>
      </trkpt>
      <trkpt lat="48.00939" lon="7.08936">
        <ele>757</ele>
        <time>2019-05-06T17:19:41Z</time>
      </trkpt>
      <trkpt lat="48.00995" lon="7.08858">
        <ele>764</ele>
        <time>2019-05-06T17:20:41Z</time>
      </trkpt>
      <trkpt lat="48.01011" lon="7.08749">
        <ele>769</ele>
        <time>2019-05-06T17:21:41Z</time>
      </trkpt>
      <trkpt lat="48.00912" lon="7.08537">
        <ele>772</ele>
        <time>2019-05-06T17:22:41Z</time>
      </trkpt>
      <trkpt lat="48.01034" lon="7.08595">
        <ele>740</ele>
        <time>2019-05-06T17:23:41Z</time>
      </trkpt>
      <trkpt lat="48.01152" lon="7.08822">
        <ele>710</ele>
        <time>2019-05-06T17:24:41Z</time>
      </trkpt>
      <trkpt lat="48.01185" lon="7.08972">
        <ele>705</ele>
        <time>2019-05-06T17:25:41Z</time>
      </trkpt>
      <trkpt lat="48.01292" lon="7.08992">
        <ele>683</ele>
        <time>2019-05-06T17:26:41Z</time>
      </trkpt>
      <trkpt lat="48.01341" lon="7.09056">
        <ele>670</ele>
        <time>2019-05-06T17:27:41Z</time>
      </trkpt>
      <trkpt lat="48.0138" lon="7.09217">
        <ele>635</ele>
        <time>2019-05-06T17:28:41Z</time>
      </trkpt>
      <trkpt lat="48.01427" lon="7.09213">
        <ele>633</ele>
        <time>2019-05-06T17:29:41Z</time>
      </trkpt>
      <trkpt lat="48.01489" lon="7.09148">
        <ele>636</ele>
        <time>2019-05-06T17:30:41Z</time>
      </trkpt>
      <trkpt lat="48.01485" lon="7.09041">
        <ele>637</ele>
        <time>2019-05-06T17:31:41Z</time>
      </trkpt>
      <trkpt lat="48.01651" lon="7.09185">
        <ele>610</ele>
        <time>2019-05-06T17:32:41Z</time>
      </trkpt>
      <trkpt lat="48.01736" lon="7.08912">
        <ele>608</ele>
        <time>2019-05-06T17:33:41Z</time>
      </trkpt>
      <trkpt lat="48.01647" lon="7.08747">
        <ele>615</ele>
        <time>2019-05-06T17:34:41Z</time>
      </trkpt>
      <trkpt lat="48.0151" lon="7.0874">
        <ele>623</ele>
        <time>2019-05-06T17:35:41Z</time>
      </trkpt>
      <trkpt lat="48.01394" lon="7.08678">
        <ele>621</ele>
        <time>2019-05-06T17:36:41Z</time>
      </trkpt>
      <trkpt lat="48.01288" lon="7.08425">
        <ele>603</ele>
        <time>2019-05-06T17:37:41Z</time>
      </trkpt>
      <trkpt lat="48.01255" lon="7.08307">
        <ele>605</ele>
        <time>2019-05-06T17:38:41Z</time>
      </trkpt>
      <trkpt lat="48.01317" lon="7.08238">
        <ele>607</ele>
        <time>2019-05-06T17:39:41Z</time>
      </trkpt>
      <trkpt lat="48.01367" lon="7.08318">
        <ele>598</ele>
        <time>2019-05-06T17:40:41Z</time>
      </trkpt>
      <trkpt lat="48.01454" lon="7.08331">
        <ele>596</ele>
        <time>2019-05-06T17:41:41Z</time>
      </trkpt>
      <trkpt lat="48.01516" lon="7.08292">
        <ele>596</ele>
        <time>2019-05-06T17:42:41Z</time>
      </trkpt>
      <trkpt lat="48.01354" lon="7.08183">
        <ele>606</ele>
        <time>2019-05-06T17:43:41Z</time>
      </trkpt>
      <trkpt lat="48.01262" lon="7.08082">
        <ele>614</ele>
        <time>2019-05-06T17:44:41Z</time>
      </trkpt>
      <trkpt lat="48.01041" lon="7.07923">
        <ele>630</ele>
        <time>2019-05-06T17:45:41Z</time>
      </trkpt>
      <trkpt lat="48.00876" lon="7.07852">
        <ele>623</ele>
        <time>2019-05-06T17:46:41Z</time>
      </trkpt>
      <trkpt lat="48.00783" lon="7.08052">
        <ele>643</ele>
        <time>2019-05-06T17:47:41Z</time>
      </trkpt>
      <trkpt lat="48.00708" lon="7.08159">
        <ele>639</ele>
        <time>2019-05-06T17:48:41Z</time>
      </trkpt>
      <trkpt lat="48.00719" lon="7.07886">
        <ele>613</ele>
        <time>2019-05-06T17:49:41Z</time>
      </trkpt>
      <trkpt lat="48.00745" lon="7.07706">
        <ele>596</ele>
        <time>2019-05-06T17:50:41Z</time>
      </trkpt>
      <trkpt lat="48.00811" lon="7.07612">
        <ele>579</ele>
        <time>2019-05-06T17:51:41Z</time>
      </trkpt>
      <trkpt lat="48.00717" lon="7.07573">
        <ele>567</ele>
        <time>2019-05-06T17:52:41Z</time>
      </trkpt>
      <trkpt lat="48.00668" lon="7.07597">
        <ele>564</ele>
        <time>2019-05-06T17:53:41Z</time>
      </trkpt>
      <trkpt lat="48.00698" lon="7.07541">
        <ele>556</ele>
        <time>2019-05-06T17:54:41Z</time>
      </trkpt>
      <trkpt lat="48.00829" lon="7.07477">
        <ele>541</ele>
        <time>2019-05-06T17:55:41Z</time>
      </trkpt>
      <trkpt lat="48.01002" lon="7.07532">
        <ele>529</ele>
        <time>2019-05-06T17:56:41Z</time>
      </trkpt>
      <trkpt lat="48.01088" lon="7.07545">
        <ele>517</ele>
        <time>2019-05-06T17:57:41Z</time>
      </trkpt>
      <trkpt lat="48.01242" lon="7.07552">
        <ele>489</ele>
        <time>2019-05-06T17:58:41Z</time>
      </trkpt>
      <trkpt lat="48.01216" lon="7.07464">
        <ele>486</ele>
        <time>2019-05-06T17:59:41Z</time>
      </trkpt>
      <trkpt lat="48.01245" lon="7.07352">
        <ele>480</ele>
        <time>2019-05-06T18:00:41Z</time>
      </trkpt>
      <trkpt lat="48.01407" lon="7.07386">
        <ele>475</ele>
        <time>2019-05-06T18:01:41Z</time>
      </trkpt>
      <trkpt lat="48.01495" lon="7.07552">
        <ele>470</ele>
        <time>2019-05-06T18:02:41Z</time>
      </trkpt>
      <trkpt lat="48.01561" lon="7.07728">
        <ele>473</ele>
        <time>2019-05-06T18:03:41Z</time>
      </trkpt>
      <trkpt lat="48.01703" lon="7.07886">
        <ele>477</ele>
        <time>2019-05-06T18:04:41Z</time>
      </trkpt>
      <trkpt lat="48.01865" lon="7.08043">
        <ele>466</ele>
        <time>2019-05-06T18:05:41Z</time>
      </trkpt>
      <trkpt lat="48.0203" lon="7.08215">
        <ele>471</ele>
        <time>2019-05-06T18:06:41Z</time>
      </trkpt>
      <trkpt lat="48.02135" lon="7.08374">
        <ele>467</ele>
        <time>2019-05-06T18:07:41Z</time>
      </trkpt>
      <trkpt lat="48.02225" lon="7.0859">
        <ele>465</ele>
        <time>2019-05-06T18:08:41Z</time>
      </trkpt>
      <trkpt lat="48.02296" lon="7.08964">
        <ele>449</ele>
        <time>2019-05-06T18:09:41Z</time>
      </trkpt>
      <trkpt lat="48.02308" lon="7.09125">
        <ele>447</ele>
        <time>2019-05-06T18:10:41Z</time>
      </trkpt>
      <trkpt lat="48.02356" lon="7.09236">
        <ele>443</ele>
        <time>2019-05-06T18:11:41Z</time>
      </trkpt>
      <trkpt lat="48.02397" lon="7.0923">
        <ele>442</ele>
        <time>2019-05-06T18:12:41Z</time>
      </trkpt>
      <trkpt lat="48.02359" lon="7.09504">
        <ele>441</ele>
        <time>2019-05-06T18:13:41Z</time>
      </trkpt>
      <trkpt lat="48.02379" lon="7.09629">
        <ele>439</ele>
        <time>2019-05-06T18:14:41Z</time>
      </trkpt>
      <trkpt lat="48.02386" lon="7.09916">
        <ele>435</ele>
        <time>2019-05-06T18:15:41Z</time>
      </trkpt>
    </trkseg>
  </trk>
</gpx>